createdAt,value
2016-04-02T00:00:06.829Z,8.42
2016-04-02T00:01:06.817Z,8.44
2016-04-02T00:02:06.835Z,8.28
2016-04-02T00:03:06.869Z,8.31
2016-04-02T00:04:06.700Z,8.3
2016-04-02T00:05:06.843Z,8.28
2016-04-02T00:06:06.862Z,8.24
2016-04-02T00:07:06.849Z,8.24
2016-04-02T00:08:06.851Z,8.28
2016-04-02T00:09:06.870Z,8.16
2016-04-02T00:10:06.856Z,8.15
2016-04-02T00:11:06.844Z,8.16
2016-04-02T00:12:06.846Z,8.19
2016-04-02T00:13:06.834Z,8.05
2016-04-02T00:14:06.821Z,8.08
2016-04-02T00:15:06.823Z,8
2016-04-02T00:16:06.873Z,8.03
2016-04-02T00:17:06.860Z,7.97
2016-04-02T00:18:06.847Z,7.93
2016-04-02T00:19:06.850Z,7.85
2016-04-02T00:20:07.383Z,7.91
2016-04-02T00:21:06.809Z,7.95
2016-04-02T00:22:06.827Z,7.85
2016-04-02T00:23:06.830Z,7.76
2016-04-02T00:24:06.833Z,7.76
2016-04-02T00:25:06.866Z,7.73
2016-04-02T00:26:06.822Z,7.85
2016-04-02T00:27:06.809Z,7.75
2016-04-02T00:28:06.828Z,7.7
2016-04-02T00:29:06.814Z,7.75
2016-04-02T00:30:06.879Z,7.57
2016-04-02T00:31:06.866Z,7.58
2016-04-02T00:32:06.822Z,7.54
2016-04-02T00:33:06.809Z,7.47
2016-04-02T00:34:06.827Z,7.43
2016-04-02T00:35:06.830Z,7.51
2016-04-02T00:36:06.807Z,7.48
2016-04-02T00:37:06.809Z,7.51
2016-04-02T00:38:06.859Z,7.5
2016-04-02T00:39:06.815Z,7.43
2016-04-02T00:40:06.817Z,7.4
2016-04-02T00:41:06.805Z,7.4
2016-04-02T00:42:06.792Z,7.33
2016-04-02T00:43:06.809Z,7.31
2016-04-02T00:44:06.798Z,7.35
2016-04-02T00:45:06.815Z,7.31
2016-04-02T00:46:06.850Z,7.28
2016-04-02T00:47:06.789Z,7.25
2016-04-02T00:48:06.808Z,7.24
2016-04-02T00:49:06.795Z,7.25
2016-04-02T00:50:06.797Z,7.25
2016-04-02T00:51:06.784Z,7.24
2016-04-02T00:52:06.819Z,7.13
2016-04-02T00:53:06.821Z,7.21
2016-04-02T00:54:06.808Z,7.14
2016-04-02T00:55:06.811Z,7.13
2016-04-02T00:56:06.782Z,7.18
2016-04-02T00:57:06.800Z,7.11
2016-04-02T00:58:06.787Z,7.11
2016-04-02T00:59:06.791Z,7.15
2016-04-02T01:00:06.808Z,7.14
2016-04-02T01:01:06.796Z,7.05
2016-04-02T01:02:06.768Z,7.03
2016-04-02T01:03:06.770Z,7.11
2016-04-02T01:04:06.773Z,7.11
2016-04-02T01:05:06.760Z,7.02
2016-04-02T01:06:06.779Z,7.02
2016-04-02T01:07:06.796Z,7
2016-04-02T01:08:06.783Z,7.03
2016-04-02T01:09:06.771Z,6.97
2016-04-02T01:10:06.758Z,6.88
2016-04-02T01:11:06.776Z,6.93
2016-04-02T01:12:06.763Z,6.88
2016-04-02T01:13:06.765Z,6.89
2016-04-02T01:14:06.768Z,6.84
2016-04-02T01:15:06.770Z,6.88
2016-04-02T01:16:06.743Z,6.89
2016-04-02T01:17:06.776Z,6.89
2016-04-02T01:18:06.778Z,6.85
2016-04-02T01:19:06.781Z,6.89
2016-04-02T01:20:06.784Z,6.89
2016-04-02T01:21:06.740Z,6.82
2016-04-02T01:22:06.759Z,6.89
2016-04-02T01:23:06.731Z,6.85
2016-04-02T01:24:06.780Z,6.79
2016-04-02T01:25:06.735Z,6.78
2016-04-02T01:26:06.753Z,6.81
2016-04-02T01:27:06.741Z,6.87
2016-04-02T01:28:06.744Z,6.84
2016-04-02T01:29:06.778Z,6.79
2016-04-02T01:30:06.749Z,6.79
2016-04-02T01:31:06.799Z,6.74
2016-04-02T01:32:06.724Z,6.84
2016-04-02T01:33:06.741Z,6.74
2016-04-02T01:34:06.791Z,6.74
2016-04-02T01:35:06.747Z,6.72
2016-04-02T01:36:06.718Z,6.72
2016-04-02T01:37:06.737Z,6.78
2016-04-02T01:38:06.724Z,6.74
2016-04-02T01:39:06.601Z,6.74
2016-04-02T01:40:06.729Z,6.78
2016-04-02T01:41:06.716Z,6.82
2016-04-02T01:42:06.734Z,6.75
2016-04-02T01:43:06.706Z,6.77
2016-04-02T01:44:06.724Z,6.77
2016-04-02T01:45:06.711Z,6.74
2016-04-02T01:46:06.745Z,6.72
2016-04-02T01:47:06.701Z,6.72
2016-04-02T01:48:06.703Z,6.74
2016-04-02T01:49:06.706Z,6.75
2016-04-02T01:50:06.724Z,6.79
2016-04-02T01:51:06.680Z,6.7
2016-04-02T01:52:06.730Z,6.66
2016-04-02T01:53:06.686Z,6.75
2016-04-02T01:54:06.688Z,6.66
2016-04-02T01:55:06.706Z,6.69
2016-04-02T01:56:06.702Z,6.69
2016-04-02T01:57:06.709Z,6.67
2016-04-02T01:58:06.653Z,6.64
2016-04-02T01:59:06.660Z,6.75
2016-04-02T02:00:06.635Z,6.72
2016-04-02T02:01:06.616Z,6.67
2016-04-02T02:02:06.645Z,6.7
2016-04-02T02:03:06.613Z,6.74
2016-04-02T02:04:06.626Z,6.72
2016-04-02T02:05:06.610Z,6.77
2016-04-02T02:06:06.594Z,6.7
2016-04-02T02:07:06.579Z,6.74
2016-04-02T02:08:06.596Z,6.7
2016-04-02T02:09:06.575Z,6.69
2016-04-02T02:10:06.576Z,6.7
2016-04-02T02:11:06.578Z,6.67
2016-04-02T02:12:06.581Z,6.69
2016-04-02T02:13:06.583Z,6.64
2016-04-02T02:14:06.601Z,6.66
2016-04-02T02:15:06.596Z,6.7
2016-04-02T02:16:06.584Z,6.57
2016-04-02T02:17:06.414Z,6.59
2016-04-02T02:18:06.588Z,6.57
2016-04-02T02:19:06.527Z,6.63
2016-04-02T02:20:06.592Z,6.56
2016-04-02T02:21:06.563Z,6.54
2016-04-02T02:22:06.581Z,6.45
2016-04-02T02:23:06.568Z,6.48
2016-04-02T02:24:06.556Z,6.64
2016-04-02T02:25:06.589Z,6.46
2016-04-02T02:26:06.545Z,6.54
2016-04-02T02:27:06.549Z,6.49
2016-04-02T02:28:06.551Z,6.49
2016-04-02T02:29:06.554Z,6.45
2016-04-02T02:30:06.541Z,6.45
2016-04-02T02:31:06.544Z,6.45
2016-04-02T02:32:06.531Z,6.51
2016-04-02T02:33:06.550Z,6.42
2016-04-02T02:34:06.678Z,6.46
2016-04-02T02:35:06.539Z,6.42
2016-04-02T02:36:06.526Z,6.39
2016-04-02T02:37:06.545Z,6.3
2016-04-02T02:38:06.531Z,6.33
2016-04-02T02:39:06.550Z,6.36
2016-04-02T02:40:06.552Z,6.36
2016-04-02T02:41:06.489Z,6.33
2016-04-02T02:42:06.509Z,6.38
2016-04-02T02:43:06.527Z,6.36
2016-04-02T02:44:06.498Z,6.39
2016-04-02T02:45:06.501Z,6.33
2016-04-02T02:46:06.535Z,6.39
2016-04-02T02:47:06.522Z,6.44
2016-04-02T02:48:06.541Z,6.42
2016-04-02T02:49:06.621Z,6.36
2016-04-02T02:50:06.499Z,6.31
2016-04-02T02:51:06.501Z,6.35
2016-04-02T02:52:06.504Z,6.38
2016-04-02T02:53:06.491Z,6.39
2016-04-02T02:54:06.509Z,6.48
2016-04-02T02:55:06.481Z,6.52
2016-04-02T02:56:06.499Z,6.48
2016-04-02T02:57:06.471Z,6.52
2016-04-02T02:58:06.474Z,6.6
2016-04-02T02:59:06.492Z,6.51
2016-04-02T03:00:06.479Z,6.63
2016-04-02T03:01:06.497Z,6.59
2016-04-02T03:02:06.484Z,6.63
2016-04-02T03:03:06.487Z,6.66
2016-04-02T03:04:06.614Z,6.72
2016-04-02T03:05:06.493Z,6.78
2016-04-02T03:06:06.464Z,6.87
2016-04-02T03:07:06.482Z,6.84
2016-04-02T03:08:06.485Z,6.77
2016-04-02T03:09:06.488Z,6.88
2016-04-02T03:10:06.490Z,6.93
2016-04-02T03:11:06.446Z,6.95
2016-04-02T03:12:06.448Z,6.89
2016-04-02T03:13:06.451Z,6.93
2016-04-02T03:14:06.454Z,6.99
2016-04-02T03:15:06.441Z,6.99
2016-04-02T03:16:06.475Z,7.1
2016-04-02T03:17:06.446Z,7.11
2016-04-02T03:18:06.464Z,7.13
2016-04-02T03:19:06.874Z,7.17
2016-04-02T03:20:06.439Z,7.14
2016-04-02T03:21:06.458Z,7.21
2016-04-02T03:22:06.460Z,7.25
2016-04-02T03:23:06.291Z,7.21
2016-04-02T03:24:06.465Z,7.32
2016-04-02T03:25:06.452Z,7.28
2016-04-02T03:26:06.440Z,7.38
2016-04-02T03:27:06.457Z,7.38
2016-04-02T03:28:06.445Z,7.35
2016-04-02T03:29:06.448Z,7.35
2016-04-02T03:30:06.435Z,7.36
2016-04-02T03:31:06.266Z,7.47
2016-04-02T03:32:06.440Z,7.4
2016-04-02T03:33:06.459Z,7.4
2016-04-02T03:34:06.867Z,7.42
2016-04-02T03:35:06.417Z,7.45
2016-04-02T03:36:06.435Z,7.48
2016-04-02T03:37:06.423Z,7.5
2016-04-02T03:38:06.440Z,7.48
2016-04-02T03:39:06.271Z,7.48
2016-04-02T03:40:06.445Z,7.56
2016-04-02T03:41:06.448Z,7.47
2016-04-02T03:42:06.436Z,7.47
2016-04-02T03:43:06.423Z,7.48
2016-04-02T03:44:06.442Z,7.5
2016-04-02T03:45:06.428Z,7.53
2016-04-02T03:46:06.415Z,7.53
2016-04-02T03:47:06.434Z,7.56
2016-04-02T03:48:06.420Z,7.56
2016-04-02T03:49:06.455Z,7.43
2016-04-02T03:50:06.254Z,7.58
2016-04-02T03:51:06.413Z,7.57
2016-04-02T03:52:06.415Z,7.63
2016-04-02T03:53:06.402Z,7.67
2016-04-02T03:54:06.405Z,7.54
2016-04-02T03:55:06.407Z,7.58
2016-04-02T03:56:06.410Z,7.57
2016-04-02T03:57:06.429Z,7.56
2016-04-02T03:58:06.401Z,7.6
2016-04-02T03:59:06.419Z,7.7
2016-04-02T04:00:06.421Z,7.73
2016-04-02T04:01:06.424Z,7.69
2016-04-02T04:02:06.395Z,7.75
2016-04-02T04:03:06.398Z,7.69
2016-04-02T04:04:06.651Z,7.72
2016-04-02T04:05:06.420Z,7.69
2016-04-02T04:06:06.251Z,7.73
2016-04-02T04:07:06.410Z,7.79
2016-04-02T04:08:06.412Z,7.69
2016-04-02T04:09:06.384Z,7.73
2016-04-02T04:10:06.418Z,7.72
2016-04-02T04:11:06.404Z,7.82
2016-04-02T04:12:06.392Z,7.79
2016-04-02T04:13:06.409Z,7.7
2016-04-02T04:14:06.412Z,7.76
2016-04-02T04:15:06.400Z,7.66
2016-04-02T04:16:06.402Z,7.67
2016-04-02T04:17:06.436Z,7.77
2016-04-02T04:18:06.454Z,7.79
2016-04-02T04:19:06.785Z,7.87
2016-04-02T04:20:06.397Z,7.85
2016-04-02T04:21:06.400Z,7.82
2016-04-02T04:22:06.387Z,7.77
2016-04-02T04:23:06.405Z,7.85
2016-04-02T04:24:06.377Z,7.88
2016-04-02T04:25:06.395Z,7.83
2016-04-02T04:26:06.413Z,7.83
2016-04-02T04:27:06.369Z,7.77
2016-04-02T04:28:06.387Z,7.85
2016-04-02T04:29:06.390Z,7.83
2016-04-02T04:30:06.392Z,7.85
2016-04-02T04:31:06.379Z,7.8
2016-04-02T04:32:06.382Z,7.85
2016-04-02T04:33:06.385Z,7.83
2016-04-02T04:34:06.481Z,7.85
2016-04-02T04:35:06.407Z,7.87
2016-04-02T04:36:06.378Z,7.83
2016-04-02T04:37:06.396Z,7.79
2016-04-02T04:38:06.368Z,7.83
2016-04-02T04:39:06.401Z,7.77
2016-04-02T04:40:06.373Z,7.8
2016-04-02T04:41:06.359Z,7.88
2016-04-02T04:42:06.394Z,7.87
2016-04-02T04:43:06.381Z,7.8
2016-04-02T04:44:06.384Z,7.85
2016-04-02T04:45:06.371Z,7.88
2016-04-02T04:46:06.373Z,7.83
2016-04-02T04:47:06.376Z,7.8
2016-04-02T04:48:06.379Z,7.82
2016-04-02T04:49:06.459Z,7.85
2016-04-02T04:50:06.353Z,7.79
2016-04-02T04:51:06.371Z,7.83
2016-04-02T04:52:06.358Z,7.8
2016-04-02T04:53:06.377Z,7.83
2016-04-02T04:54:06.379Z,7.9
2016-04-02T04:55:06.366Z,7.94
2016-04-02T04:56:06.369Z,7.93
2016-04-02T04:57:06.355Z,7.87
2016-04-02T04:58:06.359Z,7.88
2016-04-02T04:59:06.361Z,7.94
2016-04-02T05:00:06.364Z,7.9
2016-04-02T05:01:06.383Z,7.77
2016-04-02T05:02:06.401Z,7.82
2016-04-02T05:03:06.451Z,7.85
2016-04-02T05:04:06.374Z,7.83
2016-04-02T05:05:06.362Z,7.79
2016-04-02T05:06:06.365Z,7.94
2016-04-02T05:07:06.367Z,7.85
2016-04-02T05:08:06.370Z,7.97
2016-04-02T05:09:06.356Z,7.88
2016-04-02T05:10:06.359Z,7.87
2016-04-02T05:11:06.378Z,7.88
2016-04-02T05:12:06.364Z,7.85
2016-04-02T05:13:06.353Z,7.87
2016-04-02T05:14:06.355Z,7.95
2016-04-02T05:15:06.389Z,7.95
2016-04-02T05:16:06.345Z,7.91
2016-04-02T05:17:06.363Z,7.93
2016-04-02T05:18:06.366Z,7.98
2016-04-02T05:19:06.508Z,7.94
2016-04-02T05:20:06.339Z,7.97
2016-04-02T05:21:06.342Z,7.98
2016-04-02T05:22:06.345Z,7.98
2016-04-02T05:23:06.348Z,8.08
2016-04-02T05:24:06.351Z,8.03
2016-04-02T05:25:06.338Z,7.98
2016-04-02T05:26:06.341Z,8.05
2016-04-02T05:27:06.343Z,8.06
2016-04-02T05:28:06.361Z,8.1
2016-04-02T05:29:06.349Z,8.01
2016-04-02T05:30:06.351Z,8.19
2016-04-02T05:31:06.338Z,8.15
2016-04-02T05:32:06.356Z,8.1
2016-04-02T05:33:06.343Z,8.2
2016-04-02T05:34:06.768Z,8.2
2016-04-02T05:35:06.348Z,8.18
2016-04-02T05:36:06.335Z,8.19
2016-04-02T05:37:06.338Z,8.19
2016-04-02T05:38:06.341Z,8.23
2016-04-02T05:39:06.329Z,8.24
2016-04-02T05:40:06.331Z,8.26
2016-04-02T05:41:06.381Z,8.23
2016-04-02T05:42:06.320Z,8.33
2016-04-02T05:43:06.323Z,8.33
2016-04-02T05:44:06.326Z,8.31
2016-04-02T05:45:06.359Z,8.27
2016-04-02T05:46:06.347Z,8.34
2016-04-02T05:47:06.349Z,8.3
2016-04-02T05:48:06.336Z,8.38
2016-04-02T05:49:06.542Z,8.36
2016-04-02T05:50:06.327Z,8.27
2016-04-02T05:51:06.330Z,8.38
2016-04-02T05:52:06.348Z,8.37
2016-04-02T05:53:06.366Z,8.37
2016-04-02T05:54:06.322Z,8.38
2016-04-02T05:55:06.341Z,8.42
2016-04-02T05:56:06.327Z,8.41
2016-04-02T05:57:06.330Z,8.38
2016-04-02T05:58:06.363Z,8.38
2016-04-02T05:59:06.335Z,8.41
2016-04-02T06:00:06.338Z,8.38
2016-04-02T06:01:06.341Z,8.42
2016-04-02T06:02:06.344Z,8.44
2016-04-02T06:03:06.174Z,8.38
2016-04-02T06:04:06.411Z,8.46
2016-04-02T06:05:06.336Z,8.55
2016-04-02T06:06:06.323Z,8.51
2016-04-02T06:07:06.201Z,8.42
2016-04-02T06:08:06.328Z,8.53
2016-04-02T06:09:06.331Z,8.6
2016-04-02T06:10:06.349Z,8.61
2016-04-02T06:11:06.336Z,8.61
2016-04-02T06:12:06.339Z,8.63
2016-04-02T06:13:06.309Z,8.66
2016-04-02T06:14:06.344Z,8.71
2016-04-02T06:15:06.331Z,8.7
2016-04-02T06:16:06.334Z,8.63
2016-04-02T06:17:06.337Z,8.67
2016-04-02T06:18:06.340Z,8.69
2016-04-02T06:19:06.498Z,8.73
2016-04-02T06:20:06.345Z,8.73
2016-04-02T06:21:06.331Z,8.78
2016-04-02T06:22:06.334Z,8.74
2016-04-02T06:23:06.337Z,8.78
2016-04-02T06:24:06.339Z,8.79
2016-04-02T06:25:06.358Z,8.89
2016-04-02T06:26:06.376Z,8.88
2016-04-02T06:27:06.316Z,8.91
2016-04-02T06:28:06.319Z,9.04
2016-04-02T06:29:06.337Z,9.08
2016-04-02T06:30:06.340Z,9
2016-04-02T06:31:06.343Z,9.06
2016-04-02T06:32:06.329Z,9.06
2016-04-02T06:33:06.333Z,9.11
2016-04-02T06:34:06.257Z,9.06
2016-04-02T06:35:06.338Z,9.04
2016-04-02T06:36:06.340Z,9.16
2016-04-02T06:37:06.328Z,9.1
2016-04-02T06:38:06.331Z,9.13
2016-04-02T06:39:06.334Z,9.11
2016-04-02T06:40:06.337Z,9.04
2016-04-02T06:41:06.355Z,9.21
2016-04-02T06:42:06.342Z,9.21
2016-04-02T06:43:06.329Z,9.16
2016-04-02T06:44:06.348Z,9.23
2016-04-02T06:45:06.350Z,9.28
2016-04-02T06:46:06.353Z,9.26
2016-04-02T06:47:06.183Z,9.19
2016-04-02T06:48:06.342Z,9.14
2016-04-02T06:49:06.532Z,9.14
2016-04-02T06:50:06.331Z,9.16
2016-04-02T06:51:06.350Z,9.32
2016-04-02T06:52:06.368Z,9.34
2016-04-02T06:53:06.371Z,9.29
2016-04-02T06:54:06.358Z,9.36
2016-04-02T06:55:06.345Z,9.46
2016-04-02T06:56:06.333Z,9.32
2016-04-02T06:57:06.350Z,9.4
2016-04-02T06:58:06.369Z,9.4
2016-04-02T06:59:06.340Z,9.41
2016-04-02T07:00:06.358Z,9.4
2016-04-02T07:01:06.346Z,9.51
2016-04-02T07:02:06.395Z,9.55
2016-04-02T07:03:06.335Z,9.61
2016-04-02T07:04:06.509Z,9.5
2016-04-02T07:05:06.371Z,9.5
2016-04-02T07:06:06.359Z,9.55
2016-04-02T07:07:06.377Z,9.51
2016-04-02T07:08:06.364Z,9.58
2016-04-02T07:09:06.383Z,9.61
2016-04-02T07:10:06.354Z,9.59
2016-04-02T07:11:06.388Z,9.62
2016-04-02T07:12:06.360Z,9.65
2016-04-02T07:13:06.362Z,9.72
2016-04-02T07:14:06.396Z,9.87
2016-04-02T07:15:06.368Z,9.89
2016-04-02T07:16:06.354Z,9.87
2016-04-02T07:17:06.373Z,9.91
2016-04-02T07:18:06.376Z,9.89
2016-04-02T07:19:06.269Z,9.84
2016-04-02T07:20:06.365Z,9.84
2016-04-02T07:21:06.368Z,9.87
2016-04-02T07:22:06.386Z,9.87
2016-04-02T07:23:06.405Z,9.86
2016-04-02T07:24:06.392Z,9.76
2016-04-02T07:25:06.363Z,9.83
2016-04-02T07:26:06.381Z,9.83
2016-04-02T07:27:06.399Z,9.99
2016-04-02T07:28:06.386Z,9.95
2016-04-02T07:29:06.389Z,10.02
2016-04-02T07:30:06.392Z,10.02
2016-04-02T07:31:06.364Z,9.99
2016-04-02T07:32:06.413Z,9.97
2016-04-02T07:33:06.400Z,10.15
2016-04-02T07:34:06.512Z,10.15
2016-04-02T07:35:06.374Z,10.15
2016-04-02T07:36:06.393Z,10.07
2016-04-02T07:37:06.396Z,10.23
2016-04-02T07:38:06.413Z,10.2
2016-04-02T07:39:06.401Z,10.17
2016-04-02T07:40:06.403Z,10.09
2016-04-02T07:41:06.406Z,10.09
2016-04-02T07:42:06.424Z,10.12
2016-04-02T07:43:06.412Z,10.15
2016-04-02T07:44:06.680Z,10.13
2016-04-02T07:45:06.401Z,10.19
2016-04-02T07:46:06.420Z,10.33
2016-04-02T07:47:06.391Z,10.31
2016-04-02T07:48:06.409Z,10.37
2016-04-02T07:49:06.318Z,10.37
2016-04-02T07:50:06.414Z,10.48
2016-04-02T07:51:06.403Z,10.42
2016-04-02T07:52:06.405Z,10.4
2016-04-02T07:53:06.392Z,10.38
2016-04-02T07:54:06.426Z,10.56
2016-04-02T07:55:06.397Z,10.6
2016-04-02T07:56:06.416Z,10.69
2016-04-02T07:57:06.449Z,10.74
2016-04-02T07:58:06.421Z,10.82
2016-04-02T07:59:06.423Z,10.72
2016-04-02T08:00:06.426Z,10.79
2016-04-02T08:01:06.413Z,10.94
2016-04-02T08:02:06.416Z,10.93
2016-04-02T08:03:06.435Z,10.96
2016-04-02T08:04:06.500Z,11.1
2016-04-02T08:05:06.471Z,11.05
2016-04-02T08:06:06.427Z,10.97
2016-04-02T08:07:06.445Z,11.08
2016-04-02T08:08:06.448Z,10.87
2016-04-02T08:09:06.465Z,10.81
2016-04-02T08:10:06.437Z,10.84
2016-04-02T08:11:06.456Z,10.82
2016-04-02T08:12:06.458Z,10.81
2016-04-02T08:13:06.476Z,10.79
2016-04-02T08:14:06.464Z,10.9
2016-04-02T08:15:06.482Z,10.87
2016-04-02T08:16:06.470Z,10.94
2016-04-02T08:17:06.472Z,11
2016-04-02T08:18:06.475Z,11.04
2016-04-02T08:19:06.539Z,11.02
2016-04-02T08:20:06.495Z,11.04
2016-04-02T08:21:06.467Z,11.04
2016-04-02T08:22:06.470Z,11.08
2016-04-02T08:23:06.473Z,11.14
2016-04-02T08:24:06.491Z,11.14
2016-04-02T08:25:06.478Z,11.25
2016-04-02T08:26:06.496Z,11.29
2016-04-02T08:27:06.514Z,11.25
2016-04-02T08:28:06.501Z,11.33
2016-04-02T08:29:06.519Z,11.29
2016-04-02T08:30:06.491Z,11.29
2016-04-02T08:31:06.510Z,11.43
2016-04-02T08:32:06.497Z,11.35
2016-04-02T08:33:06.515Z,11.32
2016-04-02T08:34:06.518Z,11.41
2016-04-02T08:35:06.504Z,11.43
2016-04-02T08:36:06.507Z,11.41
2016-04-02T08:37:06.509Z,11.47
2016-04-02T08:38:06.512Z,11.57
2016-04-02T08:39:06.515Z,11.77
2016-04-02T08:40:06.518Z,11.77
2016-04-02T08:41:06.504Z,11.77
2016-04-02T08:42:06.524Z,11.83
2016-04-02T08:43:06.526Z,11.8
2016-04-02T08:44:06.529Z,11.91
2016-04-02T08:45:06.531Z,12.06
2016-04-02T08:46:06.534Z,11.97
2016-04-02T08:47:06.537Z,12.04
2016-04-02T08:48:06.556Z,12.1
2016-04-02T08:49:06.448Z,12.04
2016-04-02T08:50:06.529Z,12.04
2016-04-02T08:51:06.547Z,12.03
2016-04-02T08:52:06.566Z,12.1
2016-04-02T08:53:06.537Z,12.18
2016-04-02T08:54:06.571Z,12.24
2016-04-02T08:55:06.558Z,12.25
2016-04-02T08:56:06.577Z,12.27
2016-04-02T08:57:06.564Z,12.21
2016-04-02T08:58:06.583Z,12.25
2016-04-02T08:59:06.569Z,12.21
2016-04-02T09:00:06.603Z,12.15
2016-04-02T09:01:06.590Z,12.29
2016-04-02T09:02:06.561Z,12.28
2016-04-02T09:03:06.595Z,12.25
2016-04-02T09:04:06.614Z,12.53
2016-04-02T09:05:06.585Z,12.53
2016-04-02T09:06:06.604Z,12.5
2016-04-02T09:07:06.590Z,12.55
2016-04-02T09:08:06.609Z,12.72
2016-04-02T09:09:06.595Z,12.64
2016-04-02T09:10:06.614Z,12.7
2016-04-02T09:11:06.617Z,12.64
2016-04-02T09:12:06.635Z,12.67
2016-04-02T09:13:06.623Z,12.73
2016-04-02T09:14:06.625Z,12.78
2016-04-02T09:15:06.612Z,12.85
2016-04-02T09:16:06.631Z,12.95
2016-04-02T09:17:06.634Z,13.01
2016-04-02T09:18:06.637Z,12.97
2016-04-02T09:19:06.764Z,13.01
2016-04-02T09:20:06.657Z,12.98
2016-04-02T09:21:06.659Z,12.8
2016-04-02T09:22:06.662Z,12.82
2016-04-02T09:23:06.664Z,12.75
2016-04-02T09:24:06.652Z,12.67
2016-04-02T09:25:06.655Z,12.64
2016-04-02T09:26:06.673Z,12.7
2016-04-02T09:27:06.676Z,12.65
2016-04-02T09:28:06.678Z,12.76
2016-04-02T09:29:06.681Z,12.82
2016-04-02T09:30:06.699Z,12.98
2016-04-02T09:31:06.717Z,13.01
2016-04-02T09:32:06.688Z,13.18
2016-04-02T09:33:06.535Z,13.15
2016-04-02T09:34:06.850Z,13.22
2016-04-02T09:35:06.541Z,13.22
2016-04-02T09:36:06.700Z,13.35
2016-04-02T09:37:06.687Z,13.41
2016-04-02T09:38:06.705Z,13.42
2016-04-02T09:39:06.723Z,13.5
2016-04-02T09:40:06.711Z,13.52
2016-04-02T09:41:06.729Z,13.5
2016-04-02T09:42:06.747Z,13.52
2016-04-02T09:43:06.718Z,13.49
2016-04-02T09:44:06.737Z,13.47
2016-04-02T09:45:06.755Z,13.49
2016-04-02T09:46:06.757Z,13.56
2016-04-02T09:47:06.760Z,13.67
2016-04-02T09:48:06.762Z,13.65
2016-04-02T09:49:06.845Z,13.67
2016-04-02T09:50:06.753Z,13.65
2016-04-02T09:51:06.787Z,13.68
2016-04-02T09:52:06.758Z,13.77
2016-04-02T09:53:06.792Z,13.86
2016-04-02T09:54:06.779Z,13.83
2016-04-02T09:55:06.781Z,13.83
2016-04-02T09:56:06.800Z,13.78
2016-04-02T09:57:06.819Z,13.79
2016-04-02T09:58:06.806Z,13.92
2016-04-02T09:59:06.840Z,13.93
2016-04-02T10:00:06.811Z,13.96
2016-04-02T10:01:06.845Z,14
2016-04-02T10:02:06.832Z,13.92
2016-04-02T10:03:06.835Z,14
2016-04-02T10:04:06.900Z,14.11
2016-04-02T10:05:06.841Z,13.95
2016-04-02T10:06:06.844Z,13.97
2016-04-02T10:07:06.830Z,14.05
2016-04-02T10:08:06.833Z,14.15
2016-04-02T10:09:06.882Z,14.26
2016-04-02T10:10:06.885Z,14.2
2016-04-02T10:11:06.871Z,14.25
2016-04-02T10:12:06.874Z,14.29
2016-04-02T10:13:06.877Z,14.36
2016-04-02T10:14:06.912Z,14.36
2016-04-02T10:15:06.883Z,14.33
2016-04-02T10:16:06.901Z,14.43
2016-04-02T10:17:06.873Z,14.44
2016-04-02T10:18:06.906Z,14.45
2016-04-02T10:19:06.909Z,14.41
2016-04-02T10:20:06.942Z,14.43
2016-04-02T10:21:06.945Z,14.45
2016-04-02T10:22:06.917Z,14.51
2016-04-02T10:23:06.936Z,14.54
2016-04-02T10:24:06.970Z,14.51
2016-04-02T10:25:06.956Z,14.48
2016-04-02T10:26:06.959Z,14.54
2016-04-02T10:27:06.946Z,14.63
2016-04-02T10:28:06.949Z,14.51
2016-04-02T10:29:06.952Z,14.51
2016-04-02T10:30:06.970Z,14.36
2016-04-02T10:31:06.989Z,14.44
2016-04-02T10:32:06.991Z,14.41
2016-04-02T10:33:07.009Z,14.47
2016-04-02T10:34:07.043Z,14.44
2016-04-02T10:35:07.030Z,14.5
2016-04-02T10:36:07.016Z,14.48
2016-04-02T10:37:07.004Z,14.55
2016-04-02T10:38:07.022Z,14.6
2016-04-02T10:39:07.025Z,14.58
2016-04-02T10:40:07.044Z,14.6
2016-04-02T10:41:07.030Z,14.66
2016-04-02T10:42:07.002Z,14.65
2016-04-02T10:43:07.005Z,14.85
2016-04-02T10:44:07.038Z,14.85
2016-04-02T10:45:07.041Z,14.62
2016-04-02T10:46:07.059Z,14.66
2016-04-02T10:47:07.046Z,14.66
2016-04-02T10:48:07.065Z,14.65
2016-04-02T10:49:07.177Z,14.72
2016-04-02T10:50:07.071Z,14.91
2016-04-02T10:51:07.073Z,14.89
2016-04-02T10:52:07.060Z,15
2016-04-02T10:53:07.094Z,15.03
2016-04-02T10:54:07.098Z,14.96
2016-04-02T10:55:07.100Z,14.94
2016-04-02T10:56:07.103Z,14.91
2016-04-02T10:57:07.121Z,14.96
2016-04-02T10:58:07.108Z,14.96
2016-04-02T10:59:07.126Z,15.09
2016-04-02T11:00:07.113Z,15.11
2016-04-02T11:01:07.131Z,15.15
2016-04-02T11:02:07.149Z,15.11
2016-04-02T11:03:07.142Z,15.11
2016-04-02T11:04:07.274Z,15.22
2016-04-02T11:05:07.156Z,15.35
2016-04-02T11:06:07.117Z,15.24
2016-04-02T11:07:07.108Z,15.4
2016-04-02T11:08:07.106Z,15.43
2016-04-02T11:09:07.121Z,15.4
2016-04-02T11:10:07.103Z,15.39
2016-04-02T11:11:07.132Z,15.46
2016-04-02T11:12:07.131Z,15.43
2016-04-02T11:13:07.132Z,15.49
2016-04-02T11:14:07.102Z,15.54
2016-04-02T11:15:07.119Z,15.58
2016-04-02T11:16:07.166Z,15.35
2016-04-02T11:17:07.136Z,15.24
2016-04-02T11:18:07.124Z,15.14
2016-04-02T11:19:07.173Z,15.24
2016-04-02T11:20:07.175Z,15.24
2016-04-02T11:21:07.146Z,15.31
2016-04-02T11:22:07.195Z,15.27
2016-04-02T11:23:07.167Z,15.29
2016-04-02T11:24:07.185Z,15.36
2016-04-02T11:25:07.157Z,15.42
2016-04-02T11:26:07.191Z,15.52
2016-04-02T11:27:07.193Z,15.61
2016-04-02T11:28:07.181Z,15.65
2016-04-02T11:29:07.214Z,15.73
2016-04-02T11:30:07.201Z,15.72
2016-04-02T11:31:07.251Z,15.83
2016-04-02T11:32:07.222Z,15.73
2016-04-02T11:33:07.256Z,15.44
2016-04-02T11:34:07.306Z,15.39
2016-04-02T11:35:07.215Z,15.24
2016-04-02T11:36:07.234Z,15.31
2016-04-02T11:37:07.267Z,15.36
2016-04-02T11:38:07.255Z,15.46
2016-04-02T11:39:07.272Z,15.58
2016-04-02T11:40:07.275Z,15.58
2016-04-02T11:41:07.293Z,15.44
2016-04-02T11:42:07.280Z,15.54
2016-04-02T11:43:07.283Z,15.51
2016-04-02T11:44:07.301Z,15.55
2016-04-02T11:45:07.289Z,15.62
2016-04-02T11:46:07.307Z,15.73
2016-04-02T11:47:07.294Z,15.75
2016-04-02T11:48:07.343Z,15.84
2016-04-02T11:49:07.331Z,15.92
2016-04-02T11:50:07.349Z,16
2016-04-02T11:51:07.352Z,16.02
2016-04-02T11:52:07.355Z,15.97
2016-04-02T11:53:07.342Z,15.91
2016-04-02T11:54:07.360Z,15.92
2016-04-02T11:55:07.378Z,16.04
2016-04-02T11:56:07.350Z,15.95
2016-04-02T11:57:07.352Z,16.13
2016-04-02T11:58:07.370Z,16.15
2016-04-02T11:59:07.358Z,16.28
2016-04-02T12:00:07.360Z,16.33
2016-04-02T12:01:07.426Z,16.39
2016-04-02T12:02:07.397Z,16.51
2016-04-02T12:03:07.415Z,16.6
2016-04-02T12:04:07.464Z,16.72
2016-04-02T12:05:07.436Z,16.79
2016-04-02T12:06:07.423Z,16.86
2016-04-02T12:07:07.441Z,16.86
2016-04-02T12:08:07.428Z,16.86
2016-04-02T12:09:07.415Z,16.84
2016-04-02T12:10:07.433Z,16.89
2016-04-02T12:11:07.436Z,16.75
2016-04-02T12:12:07.439Z,16.58
2016-04-02T12:13:07.442Z,16.5
2016-04-02T12:14:07.491Z,16.38
2016-04-02T12:15:07.463Z,16.32
2016-04-02T12:16:07.497Z,16.23
2016-04-02T12:17:07.484Z,16.33
2016-04-02T12:18:07.488Z,16.31
2016-04-02T12:19:07.412Z,16.28
2016-04-02T12:20:07.493Z,16.35
2016-04-02T12:21:07.526Z,16.23
2016-04-02T12:22:07.513Z,16.2
2016-04-02T12:23:07.532Z,16.05
2016-04-02T12:24:07.518Z,16
2016-04-02T12:25:07.537Z,16.05
2016-04-02T12:26:07.523Z,16.15
2016-04-02T12:27:07.574Z,16.2
2016-04-02T12:28:07.561Z,16.32
2016-04-02T12:29:07.564Z,16.33
2016-04-02T12:30:07.598Z,16.36
2016-04-02T12:31:07.569Z,16.46
2016-04-02T12:32:07.572Z,16.47
2016-04-02T12:33:07.589Z,16.38
2016-04-02T12:34:07.623Z,16.47
2016-04-02T12:35:07.625Z,16.46
2016-04-02T12:36:07.597Z,16.53
2016-04-02T12:37:07.600Z,16.6
2016-04-02T12:38:07.619Z,16.68
2016-04-02T12:39:07.622Z,16.75
2016-04-02T12:40:07.655Z,16.83
2016-04-02T12:41:07.627Z,16.84
2016-04-02T12:42:07.644Z,16.94
2016-04-02T12:43:07.648Z,16.99
2016-04-02T12:44:07.666Z,16.96
2016-04-02T12:45:07.669Z,16.89
2016-04-02T12:46:07.672Z,16.93
2016-04-02T12:47:07.674Z,16.94
2016-04-02T12:48:07.771Z,16.91
2016-04-02T12:49:07.680Z,16.86
2016-04-02T12:50:07.682Z,16.78
2016-04-02T12:51:07.716Z,16.89
2016-04-02T12:52:07.718Z,16.81
2016-04-02T12:53:07.691Z,16.83
2016-04-02T12:54:07.724Z,16.83
2016-04-02T12:55:07.727Z,16.78
2016-04-02T12:56:07.746Z,16.83
2016-04-02T12:57:07.732Z,16.81
2016-04-02T12:58:07.735Z,16.68
2016-04-02T12:59:07.753Z,16.49
2016-04-02T13:00:07.772Z,16.38
2016-04-02T13:01:07.742Z,16.46
2016-04-02T13:02:07.777Z,16.46
2016-04-02T13:03:07.748Z,16.46
2016-04-02T13:04:07.814Z,16.41
2016-04-02T13:05:07.770Z,16.35
2016-04-02T13:06:07.819Z,16.36
2016-04-02T13:07:07.806Z,16.31
2016-04-02T13:08:07.793Z,16.33
2016-04-02T13:09:07.811Z,16.41
2016-04-02T13:10:07.799Z,16.53